Time;durP1;ratioP1;P1;durP2;ratioP2;P2;SDS_P1;SDS_P2;PMS_P1;PMS_P2;Temp;Humidity;BMP_temperature;BMP_pressure;BME280_temperature;BME280_humidity;BME280_pressure;Samples;Min_cycle;Max_cycle;Signal;HPM_P1;HPM_P2
2021/01/21 00:01:51;;;;;;;3.8;1.2;;;;;;;3.6;70.09277;927.1398;;;;
2021/01/21 00:04:16;;;;;;;0.8;0.6;;;;;;;3.44;70.06641;927.2079;;;;
2021/01/21 00:06:41;;;;;;;4.6;2.3;;;;;;;3.33;69.47559;927.1011;;;;
2021/01/21 00:09:07;;;;;;;6.5;2.3;;;;;;;3.4;70.3623;927.1471;;;;
2021/01/21 00:11:32;;;;;;;1.4;1.2;;;;;;;3.54;67.90332;927.1688;;;;
2021/01/21 00:13:57;;;;;;;1;0.7;;;;;;;3.51;70.51465;927.1163;;;;
2021/01/21 00:16:22;;;;;;;1.1;0.6;;;;;;;3.48;70.12891;927.0008;;;;
2021/01/21 00:18:48;;;;;;;1.3;0.9;;;;;;;3.44;71.14258;927.0654;;;;
2021/01/21 00:21:13;;;;;;;0.8;0.8;;;;;;;3.27;72.47461;927.0543;;;;
2021/01/21 00:23:39;;;;;;;1.4;1;;;;;;;3.17;73.08594;927.0545;;;;
2021/01/21 00:26:04;;;;;;;4.8;3;;;;;;;3.18;72.99609;926.9493;;;;
2021/01/21 00:28:29;;;;;;;2.2;0.5;;;;;;;2.85;75.40918;927.0592;;;;
2021/01/21 00:30:54;;;;;;;0.6;0.6;;;;;;;2.63;77.2168;927.1014;;;;
2021/01/21 00:33:19;;;;;;;0.8;0.5;;;;;;;2.75;76.56738;926.9829;;;;
2021/01/21 00:35:45;;;;;;;2.9;0.9;;;;;;;2.74;76.2627;926.9034;;;;
2021/01/21 00:38:11;;;;;;;1.5;1;;;;;;;2.52;77.39844;926.9677;;;;
2021/01/21 00:40:37;;;;;;;1.3;0.7;;;;;;;2.54;75.73242;926.8173;;;;
2021/01/21 00:43:02;;;;;;;0.7;0.6;;;;;;;2.85;73.00586;926.8491;;;;
2021/01/21 00:45:30;;;;;;;0.6;0.6;;;;;;;2.99;73.98535;926.8354;;;;
2021/01/21 00:47:56;;;;;;;0.3;0.3;;;;;;;2.85;74.41895;926.7894;;;;
2021/01/21 00:50:21;;;;;;;0.5;0.5;;;;;;;2.83;74.51855;926.8212;;;;
2021/01/21 00:52:46;;;;;;;1.1;0.9;;;;;;;2.79;75.64258;926.7762;;;;
2021/01/21 00:55:11;;;;;;;0.4;0.4;;;;;;;2.99;68.81445;926.7293;;;;
2021/01/21 00:57:36;;;;;;;0.6;0.6;;;;;;;3.23;72.73633;926.7562;;;;
2021/01/21 01:00:02;;;;;;;1.8;0.7;;;;;;;3.21;74.03516;926.7433;;;;
2021/01/21 01:02:27;;;;;;;1.7;0.9;;;;;;;2.95;75.84961;926.6726;;;;
2021/01/21 01:04:54;;;;;;;0.6;0.5;;;;;;;2.91;76.34961;926.7505;;;;
2021/01/21 01:07:19;;;;;;;0.9;0.8;;;;;;;2.94;76.55664;926.6504;;;;
2021/01/21 01:09:44;;;;;;;0.4;0.4;;;;;;;2.91;76.51758;926.598;;;;
2021/01/21 01:12:09;;;;;;;2.3;0.8;;;;;;;2.72;77.46875;926.6584;;;;
2021/01/21 01:14:36;;;;;;;0.6;0.5;;;;;;;2.76;76.99609;926.6091;;;;
2021/01/21 01:17:01;;;;;;;0.7;0.6;;;;;;;2.66;77.30176;926.5881;;;;
2021/01/21 01:19:27;;;;;;;0.9;0.6;;;;;;;2.73;77.07031;926.6423;;;;
2021/01/21 01:21:52;;;;;;;1.7;0.7;;;;;;;2.68;76.30762;926.7222;;;;
2021/01/21 01:24:20;;;;;;;0.4;0.4;;;;;;;2.75;76.28711;926.652;;;;
2021/01/21 01:26:45;;;;;;;0.5;0.5;;;;;;;2.88;75.28906;926.6697;;;;
2021/01/21 01:29:10;;;;;;;0.4;0.4;;;;;;;2.94;76.26465;926.6191;;;;
2021/01/21 01:31:35;;;;;;;0.5;0.5;;;;;;;2.9;75.85254;926.6686;;;;
2021/01/21 01:34:01;;;;;;;1.1;0.5;;;;;;;3.01;74.06738;926.5814;;;;
2021/01/21 01:36:26;;;;;;;0.7;0.6;;;;;;;3;73.15723;926.606;;;;
2021/01/21 01:38:53;;;;;;;0.4;0.4;;;;;;;3.2;71.32813;926.4172;;;;
2021/01/21 01:41:18;;;;;;;0.6;0.5;;;;;;;3.3;71.17676;926.3666;;;;
2021/01/21 01:43:44;;;;;;;1.1;0.6;;;;;;;3.5;69.51367;926.4866;;;;
2021/01/21 01:46:09;;;;;;;0.4;0.4;;;;;;;3.68;69.73438;926.4285;;;;
2021/01/21 01:48:36;;;;;;;8;5.9;;;;;;;3.6;71.93555;926.3477;;;;
2021/01/21 01:51:01;;;;;;;2.9;1.8;;;;;;;3.57;72.10938;926.2225;;;;
2021/01/21 01:53:27;;;;;;;0.4;0.4;;;;;;;3.56;70.88379;926.1799;;;;
2021/01/21 01:55:52;;;;;;;0.7;0.7;;;;;;;3.53;71.89941;926.1503;;;;
2021/01/21 01:58:18;;;;;;;1.6;1.1;;;;;;;3.56;72.00684;926.2389;;;;
2021/01/21 02:00:43;;;;;;;2.5;1.4;;;;;;;3.52;72.01172;926.2328;;;;
2021/01/21 02:03:10;;;;;;;0.3;0.3;;;;;;;3.34;72.27344;926.3019;;;;
2021/01/21 02:05:35;;;;;;;0.2;0.2;;;;;;;3.16;74.48535;926.3386;;;;
2021/01/21 02:08:01;;;;;;;0.9;0.5;;;;;;;3.02;76.4248;926.2213;;;;
2021/01/21 02:10:31;;;;;;;0.3;0.3;;;;;;;2.83;77.34375;926.2483;;;;
2021/01/21 02:12:57;;;;;;;0.9;0.5;;;;;;;2.7;77.95996;926.3281;;;;
2021/01/21 02:15:22;;;;;;;0.4;0.4;;;;;;;2.66;78.2998;926.365;;;;
2021/01/21 02:17:48;;;;;;;0.3;0.3;;;;;;;2.75;77.84668;926.3567;;;;
2021/01/21 02:20:13;;;;;;;1.7;1.3;;;;;;;2.78;78.50098;926.3791;;;;
2021/01/21 02:22:38;;;;;;;0.9;0.4;;;;;;;2.88;77.80273;926.32;;;;
2021/01/21 02:25:15;;;;;;;0.5;0.3;;;;;;;2.82;77.61035;926.2575;;;;
2021/01/21 02:27:40;;;;;;;2.5;1.4;;;;;;;2.74;78.34766;926.2991;;;;
2021/01/21 02:30:05;;;;;;;7.7;5.4;;;;;;;2.72;78.54688;926.3387;;;;
2021/01/21 02:32:31;;;;;;;3.9;3;;;;;;;2.78;78.48926;926.2431;;;;
2021/01/21 02:34:56;;;;;;;1.2;0.4;;;;;;;2.63;76.91602;926.271;;;;
2021/01/21 02:37:21;;;;;;;0.4;0.4;;;;;;;2.85;75.5625;926.4105;;;;
2021/01/21 02:39:46;;;;;;;0.3;0.3;;;;;;;3.35;70.15137;926.2493;;;;
2021/01/21 02:42:11;;;;;;;0.4;0.3;;;;;;;3.66;69.9541;926.2896;;;;
2021/01/21 02:44:36;;;;;;;0.2;0.2;;;;;;;3.9;69.28809;926.1887;;;;
2021/01/21 02:47:02;;;;;;;0.5;0.5;;;;;;;3.91;72.09863;926.2698;;;;
2021/01/21 02:49:27;;;;;;;0.4;0.4;;;;;;;3.87;71.53027;926.2379;;;;
2021/01/21 02:51:53;;;;;;;0.3;0.3;;;;;;;3.72;71.86523;926.2731;;;;
2021/01/21 02:54:18;;;;;;;0.6;0.3;;;;;;;3.87;70.86719;926.2388;;;;
2021/01/21 02:56:43;;;;;;;1;0.4;;;;;;;4.07;69.21289;926.126;;;;
2021/01/21 02:59:08;;;;;;;0.2;0.2;;;;;;;3.86;71.68652;926.3928;;;;
2021/01/21 03:01:33;;;;;;;1.3;0.5;;;;;;;3.94;70.23828;926.3397;;;;
2021/01/21 03:04:00;;;;;;;0.2;0.2;;;;;;;4.2;66.98535;926.361;;;;
2021/01/21 03:06:25;;;;;;;0.9;0.4;;;;;;;4.26;69.60547;926.396;;;;
2021/01/21 03:08:51;;;;;;;0.6;0.3;;;;;;;4.01;70.22754;926.3386;;;;
2021/01/21 03:11:16;;;;;;;1.7;0.6;;;;;;;3.97;71.60352;926.3259;;;;
2021/01/21 03:13:44;;;;;;;0.7;0.6;;;;;;;3.49;73.72461;926.399;;;;
2021/01/21 03:16:09;;;;;;;0.5;0.5;;;;;;;3.41;74.40625;926.4504;;;;
2021/01/21 03:18:36;;;;;;;0.6;0.6;;;;;;;3.35;74.50879;926.5303;;;;
2021/01/21 03:21:01;;;;;;;0.6;0.4;;;;;;;3.24;73.1543;926.5952;;;;
2021/01/21 03:23:28;;;;;;;1.8;0.6;;;;;;;3.42;72.93848;926.4286;;;;
2021/01/21 03:25:52;;;;;;;1;0.6;;;;;;;3.57;70.98438;926.4797;;;;
2021/01/21 03:28:18;;;;;;;0.3;0.3;;;;;;;3.78;70.8291;926.3497;;;;
2021/01/21 03:30:43;;;;;;;1.2;0.5;;;;;;;3.71;72.81738;926.3455;;;;
2021/01/21 03:33:09;;;;;;;0.9;0.5;;;;;;;3.49;72.83691;926.4588;;;;
2021/01/21 03:35:34;;;;;;;0.4;0.4;;;;;;;3.53;71.89941;926.3721;;;;
2021/01/21 03:38:00;;;;;;;0.6;0.5;;;;;;;3.63;73.1084;926.3544;;;;
2021/01/21 03:40:25;;;;;;;0.7;0.4;;;;;;;3.37;74.50098;926.2922;;;;
2021/01/21 03:42:51;;;;;;;1.4;0.5;;;;;;;3.28;75.14746;926.2875;;;;
2021/01/21 03:45:16;;;;;;;0.7;0.5;;;;;;;3.23;75.77734;926.3425;;;;
2021/01/21 03:47:42;;;;;;;0.3;0.3;;;;;;;3.28;74.66309;926.3953;;;;
2021/01/21 03:50:08;;;;;;;2.2;0.5;;;;;;;3.36;74.74512;926.3675;;;;
2021/01/21 03:52:33;;;;;;;0.4;0.4;;;;;;;3.48;72.80176;926.2692;;;;
2021/01/21 03:54:58;;;;;;;0.4;0.4;;;;;;;3.66;72.01074;926.2628;;;;
2021/01/21 03:57:25;;;;;;;0.4;0.4;;;;;;;3.72;71.68457;926.2424;;;;
2021/01/21 03:59:50;;;;;;;0.8;0.6;;;;;;;3.65;72.81934;926.3452;;;;
2021/01/21 04:02:31;;;;;;;2.9;0.4;;;;;;;3.53;72.1582;926.3382;;;;
2021/01/21 04:04:56;;;;;;;1;0.6;;;;;;;3.76;72.5459;926.2028;;;;
2021/01/21 04:07:22;;;;;;;0.8;0.4;;;;;;;3.53;73.05664;926.1486;;;;
2021/01/21 04:09:47;;;;;;;0.9;0.4;;;;;;;3.63;71.00781;926.0947;;;;
2021/01/21 04:12:12;;;;;;;2.2;0.6;;;;;;;3.82;70.92578;926.2372;;;;
2021/01/21 04:14:41;;;;;;;0.2;0.2;;;;;;;3.87;70.7207;926.1505;;;;
2021/01/21 04:17:06;;;;;;;1.5;0.4;;;;;;;4.02;70.37402;926.2167;;;;
2021/01/21 04:19:31;;;;;;;0.4;0.3;;;;;;;3.82;70.46582;926.2789;;;;
2021/01/21 04:21:57;;;;;;;0.6;0.4;;;;;;;3.93;69.60742;926.1569;;;;
2021/01/21 04:24:22;;;;;;;1;0.4;;;;;;;3.97;72.05469;926.1662;;;;
2021/01/21 04:26:47;;;;;;;0.4;0.4;;;;;;;3.71;73.11035;926.2123;;;;
2021/01/21 04:29:12;;;;;;;0.2;0.2;;;;;;;3.7;71.0293;926.213;;;;
2021/01/21 04:31:38;;;;;;;0.3;0.3;;;;;;;4.13;67.5918;926.0474;;;;
2021/01/21 04:34:04;;;;;;;0.3;0.3;;;;;;;4.19;68.52441;925.9677;;;;
2021/01/21 04:36:30;;;;;;;0.1;0.1;;;;;;;4.35;67.48047;926.0654;;;;
2021/01/21 04:38:55;;;;;;;0.3;0.3;;;;;;;4.47;67.55566;926.0813;;;;
2021/01/21 04:41:22;;;;;;;0.2;0.2;;;;;;;4.61;66.66602;926.0747;;;;
2021/01/21 04:43:47;;;;;;;0.4;0.4;;;;;;;4.46;68.24219;926.0726;;;;
2021/01/21 04:46:14;;;;;;;0.3;0.2;;;;;;;4.43;67.32617;926.0684;;;;
2021/01/21 04:48:39;;;;;;;0.3;0.3;;;;;;;4.55;67.37695;925.9208;;;;
2021/01/21 04:51:05;;;;;;;0.3;0.3;;;;;;;4.46;67.25098;925.9457;;;;
2021/01/21 04:53:30;;;;;;;0.5;0.4;;;;;;;4.67;65.58203;925.9034;;;;
2021/01/21 04:55:55;;;;;;;0.4;0.4;;;;;;;4.72;66.15527;925.8828;;;;
2021/01/21 04:58:20;;;;;;;0.7;0.5;;;;;;;4.8;67.4502;925.9239;;;;
2021/01/21 05:00:46;;;;;;;0.9;0.8;;;;;;;4.71;67.16602;926.1058;;;;
2021/01/21 05:03:11;;;;;;;0.6;0.5;;;;;;;4.88;63.32813;926.0961;;;;
2021/01/21 05:05:38;;;;;;;0.6;0.6;;;;;;;5.32;59.27539;925.8926;;;;
2021/01/21 05:08:03;;;;;;;0.4;0.4;;;;;;;5.64;60.79883;926.0499;;;;
2021/01/21 05:10:31;;;;;;;0.7;0.2;;;;;;;5.66;61.33301;926.0895;;;;
2021/01/21 05:12:56;;;;;;;0.4;0.2;;;;;;;5.64;60.47168;926.098;;;;
2021/01/21 05:15:23;;;;;;;0.1;0.1;;;;;;;5.77;59.66504;926.1116;;;;
2021/01/21 05:17:48;;;;;;;0.4;0.3;;;;;;;5.79;59.74805;926.077;;;;
2021/01/21 05:20:14;;;;;;;0.4;0.3;;;;;;;5.68;62.11523;926.1166;;;;
2021/01/21 05:22:39;;;;;;;0.4;0.3;;;;;;;5.64;63.67773;926.0435;;;;
2021/01/21 05:25:07;;;;;;;0.7;0.3;;;;;;;5.53;65.48828;926.2192;;;;
2021/01/21 05:27:32;;;;;;;0.9;0.5;;;;;;;5.27;61.96582;926.1906;;;;
2021/01/21 05:29:57;;;;;;;1;0.8;;;;;;;5.3;60.77344;926.2453;;;;
2021/01/21 05:32:22;;;;;;;1.5;0.6;;;;;;;5.44;62.21484;926.2477;;;;
2021/01/21 05:34:47;;;;;;;0.4;0.4;;;;;;;5.46;61.38379;926.15;;;;
2021/01/21 05:37:12;;;;;;;0.3;0.3;;;;;;;5.27;63.04883;926.1542;;;;
2021/01/21 05:39:37;;;;;;;0.5;0.5;;;;;;;5.22;63.49023;926.3131;;;;
2021/01/21 05:42:03;;;;;;;0.4;0.3;;;;;;;5.34;62.78613;926.2834;;;;
2021/01/21 05:44:28;;;;;;;4.7;0.6;;;;;;;5.27;64.33398;926.3247;;;;
2021/01/21 05:46:54;;;;;;;0.9;0.3;;;;;;;5.3;62.78125;926.3582;;;;
2021/01/21 05:49:19;;;;;;;0.5;0.3;;;;;;;5.41;62.9668;926.3602;;;;
2021/01/21 05:51:44;;;;;;;3.2;1.2;;;;;;;5.18;66.40625;926.4916;;;;
2021/01/21 05:54:09;;;;;;;1.9;0.8;;;;;;;5.13;64.08691;926.4572;;;;
2021/01/21 05:56:34;;;;;;;1.5;0.8;;;;;;;5.1;62.40137;926.1744;;;;
2021/01/21 05:58:59;;;;;;;1.2;0.7;;;;;;;5.21;62.06836;926.3588;;;;
2021/01/21 06:01:25;;;;;;;1.3;0.8;;;;;;;5.21;63.93945;926.3817;;;;
2021/01/21 06:03:50;;;;;;;0.4;0.4;;;;;;;5.16;65.88379;926.3517;;;;
2021/01/21 06:06:17;;;;;;;0.4;0.4;;;;;;;5.19;62.66309;926.2715;;;;
2021/01/21 06:08:42;;;;;;;0.2;0.2;;;;;;;5.15;63.19922;926.4937;;;;
2021/01/21 06:11:07;;;;;;;0.4;0.4;;;;;;;5.35;61.51367;926.4872;;;;
2021/01/21 06:13:33;;;;;;;0.2;0.2;;;;;;;5.63;59.50098;926.3712;;;;
2021/01/21 06:16:00;;;;;;;0.9;0.5;;;;;;;5.76;59.37109;926.3248;;;;
2021/01/21 06:18:26;;;;;;;3.1;1.8;;;;;;;5.82;59.77441;926.294;;;;
2021/01/21 06:20:51;;;;;;;1.3;1;;;;;;;5.75;61.41309;926.4163;;;;
2021/01/21 06:23:17;;;;;;;2.3;1.3;;;;;;;5.74;59.08691;926.6335;;;;
2021/01/21 06:25:42;;;;;;;0.8;0.5;;;;;;;5.91;60.78223;926.4814;;;;
2021/01/21 06:28:08;;;;;;;0.3;0.3;;;;;;;6.05;58.07715;926.5349;;;;
2021/01/21 06:30:33;;;;;;;0.4;0.3;;;;;;;6.18;57.34961;926.5206;;;;
2021/01/21 06:32:59;;;;;;;0.3;0.3;;;;;;;6.22;57.07324;926.575;;;;
2021/01/21 06:35:24;;;;;;;0.7;0.5;;;;;;;6.21;57.6582;926.5742;;;;
2021/01/21 06:37:50;;;;;;;1.4;1.1;;;;;;;6.14;59.27637;926.4769;;;;
2021/01/21 06:40:17;;;;;;;0.7;0.6;;;;;;;6.07;59.4707;926.5066;;;;
2021/01/21 06:42:42;;;;;;;1.2;0.9;;;;;;;5.91;60.08105;926.4553;;;;
2021/01/21 06:45:07;;;;;;;1.7;1;;;;;;;5.9;61.75098;926.5295;;;;
2021/01/21 06:47:32;;;;;;;4.4;1;;;;;;;6.03;61.33984;926.59;;;;
2021/01/21 06:49:57;;;;;;;1.2;0.9;;;;;;;6.13;59.00391;926.6934;;;;
2021/01/21 06:52:22;;;;;;;7.6;1.3;;;;;;;6.2;59.48828;926.6615;;;;
2021/01/21 06:54:48;;;;;;;1.6;1.4;;;;;;;6.1;61.65527;926.6395;;;;
2021/01/21 06:57:14;;;;;;;1.8;0.9;;;;;;;6.07;61.97949;926.61;;;;
2021/01/21 06:59:39;;;;;;;1.5;1;;;;;;;5.83;63.73926;926.5745;;;;
2021/01/21 07:02:04;;;;;;;0.8;0.6;;;;;;;5.77;62.54492;926.6827;;;;
2021/01/21 07:04:29;;;;;;;0.5;0.4;;;;;;;5.85;63.53906;926.742;;;;
2021/01/21 07:06:54;;;;;;;1.6;1.1;;;;;;;5.85;64.67969;926.7341;;;;
2021/01/21 07:09:19;;;;;;;1.9;1.4;;;;;;;5.8;64.84082;926.7421;;;;
2021/01/21 07:11:44;;;;;;;1.8;1.2;;;;;;;5.71;66.10449;926.6442;;;;
2021/01/21 07:14:09;;;;;;;1.4;0.9;;;;;;;5.56;65.43848;926.7989;;;;
2021/01/21 07:16:35;;;;;;;1;0.8;;;;;;;5.52;67.39355;926.7606;;;;
2021/01/21 07:19:00;;;;;;;1.3;1.2;;;;;;;5.57;67.3916;926.7737;;;;
2021/01/21 07:21:25;;;;;;;4.9;2.4;;;;;;;5.54;67.91699;926.7427;;;;
2021/01/21 07:23:50;;;;;;;3.3;1.8;;;;;;;5.33;69.76855;926.7862;;;;
2021/01/21 07:26:15;;;;;;;2.1;1.2;;;;;;;5.18;69.93457;926.741;;;;
2021/01/21 07:28:40;;;;;;;1.5;0.8;;;;;;;5.15;63.41309;926.6711;;;;
2021/01/21 07:31:05;;;;;;;1.3;1;;;;;;;5.35;65.62012;926.7003;;;;
2021/01/21 07:33:30;;;;;;;1.8;1.2;;;;;;;5.44;65.73535;926.6566;;;;
2021/01/21 07:35:56;;;;;;;4.3;1.8;;;;;;;5.54;64.8252;926.5927;;;;
2021/01/21 07:38:22;;;;;;;1.9;1.2;;;;;;;5.9;59.66113;926.6614;;;;
2021/01/21 07:40:47;;;;;;;2.1;1.2;;;;;;;6.43;57.31543;926.6652;;;;
2021/01/21 07:43:13;;;;;;;1.9;1.4;;;;;;;6.63;59.80859;926.6475;;;;
2021/01/21 07:45:40;;;;;;;6.9;2.1;;;;;;;6.7;63.21387;926.7578;;;;
2021/01/21 07:48:05;;;;;;;3.3;2.2;;;;;;;6.73;63.13867;926.6505;;;;
2021/01/21 07:50:33;;;;;;;1.9;1.3;;;;;;;6.8;62.84375;926.6974;;;;
2021/01/21 07:52:56;;;;;;;3.3;1.8;;;;;;;6.7;61.87793;926.553;;;;
2021/01/21 07:55:21;;;;;;;4.2;1.8;;;;;;;6.62;65.01074;926.7519;;;;
2021/01/21 07:57:46;;;;;;;1.3;1.1;;;;;;;6.31;64.52344;926.7581;;;;
2021/01/21 08:00:11;;;;;;;11.7;2.6;;;;;;;6.23;64.94043;926.7173;;;;
2021/01/21 08:02:37;;;;;;;5.9;1.7;;;;;;;6.38;63.92383;926.7516;;;;
2021/01/21 08:05:02;;;;;;;10.2;5;;;;;;;6.37;66.8291;926.772;;;;
2021/01/21 08:07:27;;;;;;;5.3;2.6;;;;;;;6.45;65.22363;926.7341;;;;
2021/01/21 08:09:52;;;;;;;3.2;2.4;;;;;;;6.12;65.8623;926.8427;;;;
2021/01/21 08:12:17;;;;;;;6.7;2.5;;;;;;;6.25;66.64063;926.7894;;;;
2021/01/21 08:14:42;;;;;;;5;2.9;;;;;;;6.3;65.4502;926.755;;;;
2021/01/21 08:17:07;;;;;;;3.4;1.7;;;;;;;6.48;63.65527;926.7698;;;;
2021/01/21 08:19:34;;;;;;;6.9;2.1;;;;;;;6.28;64.95996;926.7659;;;;
2021/01/21 08:21:59;;;;;;;4.6;1.9;;;;;;;6.39;65.99414;926.8409;;;;
2021/01/21 08:24:27;;;;;;;2.7;1.8;;;;;;;6.39;64.77246;926.8702;;;;
2021/01/21 08:26:52;;;;;;;1.7;1.2;;;;;;;6.37;63.76367;926.8234;;;;
2021/01/21 08:29:18;;;;;;;2.2;1.3;;;;;;;6.39;64.69531;926.9034;;;;
2021/01/21 08:31:42;;;;;;;3.2;1.6;;;;;;;6.48;64.95605;926.92;;;;
2021/01/21 08:34:07;;;;;;;3.2;1.8;;;;;;;6.53;65.33789;926.8864;;;;
2021/01/21 08:36:32;;;;;;;2.7;1.4;;;;;;;6.51;63.70508;926.8917;;;;
2021/01/21 08:38:58;;;;;;;0.8;0.7;;;;;;;6.68;61.36621;926.8638;;;;
2021/01/21 08:41:23;;;;;;;1.5;1.2;;;;;;;6.94;63.32715;926.7766;;;;
2021/01/21 08:43:48;;;;;;;1.3;1.1;;;;;;;7.05;63.38867;926.824;;;;
2021/01/21 08:46:14;;;;;;;3.6;1.6;;;;;;;7.14;62.68848;926.769;;;;
2021/01/21 08:48:39;;;;;;;3.9;2.4;;;;;;;6.98;63.95605;926.7269;;;;
2021/01/21 08:51:04;;;;;;;2.2;1.5;;;;;;;7.17;64.49512;926.8;;;;
2021/01/21 08:53:30;;;;;;;5.5;1.3;;;;;;;7.24;63.65625;926.7625;;;;
2021/01/21 08:55:56;;;;;;;2.4;1;;;;;;;7.37;58.16699;926.7787;;;;
2021/01/21 08:58:20;;;;;;;1.3;1;;;;;;;7.43;59.66992;926.7483;;;;
2021/01/21 09:00:45;;;;;;;2.5;1.5;;;;;;;7.38;61.67969;926.675;;;;
2021/01/21 09:03:10;;;;;;;3.5;1.9;;;;;;;7.5;62.49219;926.7096;;;;
2021/01/21 09:05:35;;;;;;;1.9;1.2;;;;;;;7.68;61.27051;926.6547;;;;
2021/01/21 09:08:00;;;;;;;6.4;2.7;;;;;;;7.5;61.78906;926.7745;;;;
2021/01/21 09:10:25;;;;;;;2.5;2.1;;;;;;;7.45;63.59668;926.7483;;;;
2021/01/21 09:12:50;;;;;;;5.6;2.3;;;;;;;7.52;63.91309;926.7327;;;;
2021/01/21 09:15:18;;;;;;;5.7;2.4;;;;;;;7.43;64.06836;926.8211;;;;
2021/01/21 09:17:43;;;;;;;3.2;2.1;;;;;;;7.43;63.83008;926.8734;;;;
2021/01/21 09:20:08;;;;;;;1.8;1.2;;;;;;;7.1;59.17188;926.8606;;;;
2021/01/21 09:22:33;;;;;;;3.6;2.3;;;;;;;7.14;64.50195;926.8102;;;;
2021/01/21 09:24:59;;;;;;;2.1;1.3;;;;;;;7.25;63.69043;926.8211;;;;
2021/01/21 09:27:24;;;;;;;3.2;1.8;;;;;;;7.58;63.89844;926.7383;;;;
2021/01/21 09:29:50;;;;;;;1.8;1;;;;;;;7.85;62.95117;926.7431;;;;
2021/01/21 09:32:14;;;;;;;2.5;1.4;;;;;;;8.01;61.22656;926.8035;;;;
2021/01/21 09:34:39;;;;;;;5;2.9;;;;;;;8.11;60.84375;926.7134;;;;
2021/01/21 09:37:05;;;;;;;4.7;2.7;;;;;;;8.45;59.55078;926.7354;;;;
2021/01/21 09:39:30;;;;;;;2.5;1.7;;;;;;;8.66;58.85352;926.7957;;;;
2021/01/21 09:41:55;;;;;;;7.8;2;;;;;;;8.93;58.53613;926.7769;;;;
2021/01/21 09:44:20;;;;;;;4.8;2;;;;;;;8.95;59.58691;926.8887;;;;
2021/01/21 09:46:46;;;;;;;4.2;2.5;;;;;;;9.03;58.77734;926.8635;;;;
2021/01/21 09:49:10;;;;;;;4.1;2;;;;;;;9.27;58.35547;926.8317;;;;
2021/01/21 09:51:36;;;;;;;3.9;2.7;;;;;;;9.13;58.97461;926.844;;;;
2021/01/21 09:54:02;;;;;;;4.5;2.4;;;;;;;9.34;58.96875;926.7592;;;;
2021/01/21 09:56:27;;;;;;;5;2.7;;;;;;;9.32;58.79492;926.7037;;;;
2021/01/21 09:58:52;;;;;;;5.7;2;;;;;;;9.22;59.17871;926.7947;;;;
2021/01/21 10:01:20;;;;;;;2.1;1.3;;;;;;;9.22;58.14453;926.6319;;;;
2021/01/21 10:03:45;;;;;;;13.7;1.6;;;;;;;8.91;60.19336;926.7977;;;;
2021/01/21 10:06:10;;;;;;;4;1.6;;;;;;;9.1;60.06152;926.806;;;;
2021/01/21 10:08:35;;;;;;;0.8;0.8;;;;;;;9.15;57.75977;926.6731;;;;
2021/01/21 10:11:01;;;;;;;3.1;0.8;;;;;;;9.18;54.56445;926.6826;;;;
2021/01/21 10:13:26;;;;;;;1.9;1;;;;;;;9.42;55.4248;926.7131;;;;
2021/01/21 10:15:52;;;;;;;4.4;1.7;;;;;;;9.41;60.87988;926.7416;;;;
2021/01/21 10:18:17;;;;;;;3.6;2.3;;;;;;;9.6;58.71777;926.77;;;;
2021/01/21 10:20:44;;;;;;;4.1;2.4;;;;;;;9.55;56.9248;926.7028;;;;
2021/01/21 10:23:09;;;;;;;8.5;3;;;;;;;9.86;58.02539;926.6871;;;;
2021/01/21 10:25:36;;;;;;;5.9;2.8;;;;;;;9.96;58.7002;926.7508;;;;
2021/01/21 10:28:01;;;;;;;5.4;1.7;;;;;;;9.51;59.49316;926.7792;;;;
2021/01/21 10:30:29;;;;;;;8.8;3.3;;;;;;;8.97;60.15918;926.6141;;;;
2021/01/21 10:32:54;;;;;;;4.7;2.3;;;;;;;8.71;60.66699;926.6201;;;;
2021/01/21 10:35:20;;;;;;;4.7;2.2;;;;;;;8.92;60.82129;926.6135;;;;
2021/01/21 10:37:45;;;;;;;6.9;2.4;;;;;;;9.02;61.28027;926.5903;;;;
2021/01/21 10:40:10;;;;;;;4.3;2.2;;;;;;;9.11;60.30176;926.5073;;;;
2021/01/21 10:42:35;;;;;;;5.5;2.4;;;;;;;9.09;62.83789;926.4686;;;;
2021/01/21 10:45:02;;;;;;;3.1;2.2;;;;;;;9.3;61;926.4925;;;;
2021/01/21 10:47:27;;;;;;;2.5;1.7;;;;;;;9.38;59.97656;926.4659;;;;
2021/01/21 10:49:54;;;;;;;6.3;2.4;;;;;;;9.42;61.90625;926.4643;;;;
2021/01/21 10:52:19;;;;;;;4.2;1.8;;;;;;;9.6;61.07617;926.3353;;;;
2021/01/21 10:54:47;;;;;;;3.7;2;;;;;;;9.83;60.01563;926.3423;;;;
2021/01/21 10:57:12;;;;;;;3;1.8;;;;;;;9.76;57.64746;926.2662;;;;
2021/01/21 10:59:38;;;;;;;1.1;0.8;;;;;;;9.98;53.79785;926.2688;;;;
2021/01/21 11:02:04;;;;;;;1.2;1;;;;;;;10.03;53.9873;926.3228;;;;
2021/01/21 11:04:30;;;;;;;4.7;1.4;;;;;;;10.31;53.9541;926.2939;;;;
2021/01/21 11:06:54;;;;;;;2.7;1.7;;;;;;;10.28;56.7002;926.2711;;;;
2021/01/21 11:09:32;;;;;;;1;0.8;;;;;;;10.2;49.34277;926.2371;;;;
2021/01/21 11:11:46;;;;;;;0.3;0.3;;;;;;;10.4;46.89941;926.1873;;;;
2021/01/21 11:14:13;;;;;;;5.1;0.6;;;;;;;10.68;46.93066;926.1508;;;;
2021/01/21 11:16:38;;;;;;;3.1;0.5;;;;;;;10.83;45.76953;926.0722;;;;
2021/01/21 11:19:04;;;;;;;0.3;0.2;;;;;;;10.55;47.00781;926.0619;;;;
2021/01/21 11:21:28;;;;;;;1.4;0.4;;;;;;;10.79;45.05664;925.945;;;;
2021/01/21 11:23:54;;;;;;;0;0;;;;;;;10.94;41.46191;926.0549;;;;
2021/01/21 11:26:19;;;;;;;0.4;0.3;;;;;;;11.13;41.34277;925.8897;;;;
2021/01/21 11:28:47;;;;;;;0.1;0.1;;;;;;;11.23;43.35352;925.981;;;;
2021/01/21 11:31:12;;;;;;;0.8;0.4;;;;;;;11.17;46.25098;926.0078;;;;
2021/01/21 11:33:37;;;;;;;3.1;0.7;;;;;;;11.19;49.16992;925.9941;;;;
2021/01/21 11:36:02;;;;;;;2.7;0.4;;;;;;;11.15;49.46191;925.9578;;;;
2021/01/21 11:38:28;;;;;;;2.3;0.6;;;;;;;11.09;49.9248;925.9514;;;;
2021/01/21 11:40:53;;;;;;;0.4;0.1;;;;;;;10.97;47.31543;925.8801;;;;
2021/01/21 11:43:19;;;;;;;1.4;0.1;;;;;;;10.63;44.97266;925.8911;;;;
2021/01/21 11:45:46;;;;;;;0.2;0.1;;;;;;;11.01;43.46875;925.7595;;;;
2021/01/21 11:48:10;;;;;;;1;0.7;;;;;;;11.35;46.14453;925.7548;;;;
2021/01/21 11:50:38;;;;;;;1;0.7;;;;;;;11.73;46.50684;925.7585;;;;
2021/01/21 11:53:02;;;;;;;0.4;0.3;;;;;;;12.09;44.80273;925.6867;;;;
2021/01/21 11:55:27;;;;;;;0.3;0.2;;;;;;;12.33;43.05176;925.6077;;;;
2021/01/21 11:57:53;;;;;;;0.4;0.3;;;;;;;12.57;44.21094;925.5989;;;;
2021/01/21 12:00:18;;;;;;;0.5;0.4;;;;;;;12.4;41.34961;925.5825;;;;
2021/01/21 12:02:45;;;;;;;1;0.5;;;;;;;12.45;41.13672;925.546;;;;
2021/01/21 12:05:10;;;;;;;0.2;0.2;;;;;;;12.57;40.64258;925.5183;;;;
2021/01/21 12:07:36;;;;;;;0.1;0.1;;;;;;;12.01;39.99512;925.5073;;;;
2021/01/21 12:10:01;;;;;;;0.3;0.1;;;;;;;11.49;42.39648;925.4517;;;;
2021/01/21 12:12:28;;;;;;;0.1;0.1;;;;;;;11.36;42.12012;925.4373;;;;
2021/01/21 12:14:52;;;;;;;0.4;0.1;;;;;;;11.52;41.42578;925.4623;;;;
2021/01/21 12:17:18;;;;;;;0.1;0.1;;;;;;;11.57;42.00293;925.4338;;;;
2021/01/21 12:19:43;;;;;;;0.1;0.1;;;;;;;11.54;42.30957;925.3529;;;;
2021/01/21 12:22:08;;;;;;;0.1;0.1;;;;;;;11.45;38.83301;925.3264;;;;
2021/01/21 12:24:33;;;;;;;0.1;0.1;;;;;;;11.42;40.86719;925.2575;;;;
2021/01/21 12:26:58;;;;;;;0;0;;;;;;;11.47;40.57422;925.1364;;;;
2021/01/21 12:29:27;;;;;;;0.2;0.1;;;;;;;11.2;41.39551;925.2322;;;;
2021/01/21 12:31:52;;;;;;;0.1;0;;;;;;;11.07;41.50781;925.0875;;;;
2021/01/21 12:34:18;;;;;;;0.1;0.1;;;;;;;11.28;40.33887;925.115;;;;
2021/01/21 12:36:43;;;;;;;0.2;0.2;;;;;;;11.49;41.76563;925.1711;;;;
2021/01/21 12:39:09;;;;;;;1;0.3;;;;;;;11.54;41.72461;925.1744;;;;
2021/01/21 12:41:34;;;;;;;0.2;0.2;;;;;;;11.49;42.61328;925.1649;;;;
2021/01/21 12:44:01;;;;;;;0.2;0.1;;;;;;;11.27;43.86133;925.1591;;;;
2021/01/21 12:46:28;;;;;;;0.8;0.2;;;;;;;11.21;43.94727;925.1478;;;;
2021/01/21 12:48:52;;;;;;;0;0;;;;;;;11.1;44.68848;925.1301;;;;
2021/01/21 12:51:18;;;;;;;0.2;0.2;;;;;;;11.43;43.20215;925.0818;;;;
2021/01/21 12:53:44;;;;;;;0.2;0.1;;;;;;;11.5;41.56055;925.0203;;;;
2021/01/21 12:56:09;;;;;;;0.1;0.1;;;;;;;11.54;40.88965;924.9855;;;;
2021/01/21 12:58:35;;;;;;;0;0;;;;;;;11.4;40.8877;924.9475;;;;
2021/01/21 13:01:00;;;;;;;0;0;;;;;;;11.57;41.52246;924.8326;;;;
2021/01/21 13:03:26;;;;;;;0.2;0.2;;;;;;;11.25;40.91895;924.8535;;;;
2021/01/21 15:32:35;;;;;;;0.2;0.1;;;;;;;7.41;65.45996;924.877;;;;
2021/01/21 15:36:11;;;;;;;7.9;4.4;;;;;;;7.17;65.0498;924.7594;;;;
2021/01/21 15:38:36;;;;;;;8.9;3.7;;;;;;;7.13;66.20996;924.8614;;;;
2021/01/21 15:41:01;;;;;;;3.7;2.2;;;;;;;6.72;68.40918;924.8992;;;;
2021/01/21 15:43:27;;;;;;;3.3;2;;;;;;;6.55;67.95508;924.7878;;;;
2021/01/21 15:45:51;;;;;;;10.7;4.3;;;;;;;6.55;67.55762;924.8748;;;;
2021/01/21 15:48:16;;;;;;;7.1;3;;;;;;;6.48;68.11133;924.79;;;;
2021/01/21 15:50:42;;;;;;;8.2;3.3;;;;;;;6.36;69.57324;924.8691;;;;
2021/01/21 15:53:07;;;;;;;7.6;4.5;;;;;;;6.33;68.72168;924.7813;;;;
2021/01/21 15:55:38;;;;;;;6.8;3.6;;;;;;;6.2;69.23145;924.7411;;;;
2021/01/21 15:58:04;;;;;;;11.6;5;;;;;;;6.15;69.93457;924.6965;;;;
2021/01/21 16:00:29;;;;;;;10.2;5.6;;;;;;;5.95;70.50098;924.6766;;;;
2021/01/21 16:02:56;;;;;;;23.1;7.2;;;;;;;5.86;71.00586;924.8085;;;;
2021/01/21 16:05:20;;;;;;;11.6;6.1;;;;;;;5.64;71.77148;924.8805;;;;
2021/01/21 16:07:45;;;;;;;16.1;7.1;;;;;;;5.48;72.4209;924.8389;;;;
2021/01/21 16:10:10;;;;;;;21.3;7.4;;;;;;;5.43;72.06543;924.8055;;;;
2021/01/21 16:12:37;;;;;;;18.1;7.5;;;;;;;5.31;73.00293;924.884;;;;
2021/01/21 16:15:02;;;;;;;16.9;7.6;;;;;;;5.4;72.36328;924.8412;;;;
2021/01/21 16:17:28;;;;;;;13.8;5.2;;;;;;;5.51;72.08887;924.7878;;;;
2021/01/21 16:19:53;;;;;;;29.4;14.5;;;;;;;5.35;72.55762;924.8859;;;;
2021/01/21 16:22:22;;;;;;;31.2;14.2;;;;;;;5.3;72.78516;924.8019;;;;
2021/01/21 16:24:47;;;;;;;16.3;9.4;;;;;;;5.44;71.95215;924.8402;;;;
2021/01/21 16:27:15;;;;;;;15.9;8.8;;;;;;;5.15;73.88965;924.8566;;;;
2021/01/21 16:29:41;;;;;;;18.3;9;;;;;;;5.03;74.31836;924.854;;;;
2021/01/21 16:32:06;;;;;;;13.2;8.2;;;;;;;5.14;74.14453;924.8572;;;;
2021/01/21 16:34:33;;;;;;;11.7;5.8;;;;;;;5.11;74.12793;924.8547;;;;
2021/01/21 16:36:58;;;;;;;11.1;4.9;;;;;;;5.14;74.08789;924.8833;;;;
2021/01/21 16:39:24;;;;;;;14.4;7;;;;;;;5.17;73.68848;924.8875;;;;
2021/01/21 16:41:49;;;;;;;7.7;5;;;;;;;5.14;74.17969;924.8463;;;;
2021/01/21 16:44:15;;;;;;;139.3;51.8;;;;;;;4.99;74.25488;924.9182;;;;
2021/01/21 16:46:43;;;;;;;13.6;6.3;;;;;;;5.1;72.77539;924.9169;;;;
2021/01/21 16:49:05;;;;;;;79.3;35.3;;;;;;;5.17;72.64063;924.9483;;;;
2021/01/21 16:51:31;;;;;;;22.8;10;;;;;;;5.11;72.9668;924.8933;;;;
2021/01/21 16:53:56;;;;;;;23.1;12.5;;;;;;;5.13;72.87012;924.9172;;;;